createdAt,value
2022-10-02T00:03:50.339Z,0.80
2022-10-02T00:09:32.298Z,0.90
2022-10-02T00:15:13.662Z,0.85
2022-10-02T00:21:15.791Z,0.80
2022-10-02T00:27:02.612Z,1.10
2022-10-02T00:32:38.254Z,0.88
2022-10-02T00:38:16.354Z,0.95
2022-10-02T00:44:16.553Z,0.80
2022-10-02T00:49:50.337Z,0.90
2022-10-02T00:55:40.213Z,1.00
2022-10-02T01:01:33.685Z,0.90
2022-10-02T01:07:07.886Z,0.70
2022-10-02T01:18:13.940Z,0.90
2022-10-02T01:23:54.272Z,1.10
2022-10-02T01:29:25.115Z,0.90
2022-10-02T01:34:56.680Z,0.98
2022-10-02T01:40:33.904Z,0.82
2022-10-02T01:46:25.012Z,1.00
2022-10-02T01:52:46.894Z,0.80
2022-10-02T01:58:39.195Z,0.90
2022-10-02T02:04:23.906Z,0.90
2022-10-02T02:10:14.544Z,1.08
2022-10-02T02:16:01.090Z,0.90
2022-10-02T02:21:40.887Z,0.80
2022-10-02T02:27:16.355Z,1.02
2022-10-02T02:32:52.688Z,1.02
2022-10-02T02:38:28.015Z,0.90
2022-10-02T02:44:03.319Z,0.90
2022-10-02T02:49:43.675Z,1.05
2022-10-02T02:55:19.649Z,1.08
2022-10-02T03:00:50.948Z,1.58
2022-10-02T03:06:26.903Z,0.93
2022-10-02T03:12:07.157Z,0.95
2022-10-02T03:17:59.641Z,0.90
2022-10-02T03:23:37.268Z,1.00
2022-10-02T03:29:30.964Z,1.05
2022-10-02T03:35:03.725Z,1.15
2022-10-02T03:40:34.867Z,1.10
2022-10-02T03:46:06.455Z,1.17
2022-10-02T03:51:37.315Z,1.33
2022-10-02T03:57:15.098Z,1.10
2022-10-02T04:02:54.109Z,1.27
2022-10-02T04:08:35.827Z,1.10
2022-10-02T04:14:09.814Z,1.50
2022-10-02T04:19:48.621Z,1.42
2022-10-02T04:25:27.188Z,1.17
2022-10-02T04:31:01.016Z,1.40
2022-10-02T04:42:32.973Z,1.20
2022-10-02T04:48:21.187Z,1.23
2022-10-02T04:53:53.009Z,1.40
2022-10-02T04:59:45.464Z,1.25
2022-10-02T05:05:35.452Z,1.58
2022-10-02T05:11:14.206Z,1.10
2022-10-02T05:17:13.704Z,1.35
2022-10-02T05:23:22.285Z,1.23
2022-10-02T05:29:34.936Z,1.08
2022-10-02T05:35:20.436Z,1.17
2022-10-02T05:41:14.844Z,1.10
2022-10-02T05:52:46.229Z,1.25
2022-10-02T05:58:42.287Z,1.25
2022-10-02T06:04:44.399Z,1.30
2022-10-02T06:10:22.279Z,1.15
2022-10-02T06:16:09.211Z,1.40
2022-10-02T06:21:55.360Z,1.20
2022-10-02T06:27:33.751Z,1.20
2022-10-02T06:33:17.618Z,1.67
2022-10-02T06:39:01.344Z,1.33
2022-10-02T06:44:42.156Z,1.47
2022-10-02T06:50:23.155Z,1.40
2022-10-02T06:56:00.507Z,1.25
2022-10-02T07:01:47.630Z,1.20
2022-10-02T07:07:35.307Z,1.10
2022-10-02T07:13:18.585Z,1.45
2022-10-02T07:19:11.228Z,1.25
2022-10-02T07:24:58.351Z,1.40
2022-10-02T07:31:08.254Z,1.23
2022-10-02T07:36:57.984Z,1.48
2022-10-02T07:42:45.453Z,1.30
2022-10-02T07:48:33.338Z,1.70
2022-10-02T07:54:13.239Z,1.20
2022-10-02T07:59:46.167Z,1.02
2022-10-02T08:05:24.341Z,1.40
2022-10-02T08:11:03.189Z,1.20
2022-10-02T08:16:43.534Z,1.13
2022-10-02T08:22:34.932Z,1.10
2022-10-02T08:28:32.009Z,1.20
2022-10-02T08:34:18.200Z,1.00
2022-10-02T08:40:20.384Z,1.27
2022-10-02T08:46:03.761Z,1.10
2022-10-02T08:51:47.280Z,1.20
2022-10-02T08:57:39.088Z,1.30
2022-10-02T09:03:19.899Z,1.13
2022-10-02T09:09:12.533Z,1.33
2022-10-02T09:15:12.990Z,1.40
2022-10-02T09:21:16.675Z,1.10
2022-10-02T09:26:52.421Z,1.10
2022-10-02T09:32:48.387Z,1.30
2022-10-02T09:38:40.475Z,1.20
2022-10-02T09:44:31.667Z,1.10
2022-10-02T09:50:41.932Z,0.90
2022-10-02T09:56:31.528Z,1.10
2022-10-02T10:02:20.410Z,1.10
2022-10-02T10:08:13.416Z,1.00
2022-10-02T10:14:22.172Z,0.93
2022-10-02T10:20:13.028Z,1.30
2022-10-02T10:26:18.171Z,0.85
2022-10-02T10:38:29.215Z,1.10
2022-10-02T10:44:18.432Z,0.95
2022-10-02T10:50:05.486Z,1.38
2022-10-02T10:56:07.456Z,1.60
2022-10-02T11:01:56.800Z,1.10
2022-10-02T11:07:28.238Z,1.20
2022-10-02T11:13:28.026Z,1.17
2022-10-02T11:19:01.953Z,1.10
2022-10-02T11:24:55.395Z,1.45
2022-10-02T11:30:55.566Z,1.38
2022-10-02T11:36:42.863Z,1.38
2022-10-02T11:42:23.452Z,1.40
2022-10-02T11:48:22.769Z,1.33
2022-10-02T11:54:33.231Z,1.92
2022-10-02T12:00:23.119Z,1.20
2022-10-02T12:06:21.559Z,1.40
2022-10-02T12:12:12.278Z,1.70
2022-10-02T12:17:46.362Z,1.35
2022-10-02T12:23:58.632Z,1.20
2022-10-02T12:30:04.527Z,1.42
2022-10-02T12:35:38.823Z,1.25
2022-10-02T12:41:09.819Z,1.90
2022-10-02T12:47:01.932Z,1.60
2022-10-02T12:53:04.565Z,1.10
2022-10-02T12:59:20.750Z,1.00
2022-10-02T13:04:58.239Z,1.05
2022-10-02T13:10:39.153Z,1.10
2022-10-02T13:16:32.168Z,1.38
2022-10-02T13:22:07.303Z,0.82
2022-10-02T13:27:50.710Z,0.93
2022-10-02T13:34:23.668Z,1.10
2022-10-02T13:40:13.192Z,1.00
2022-10-02T13:46:13.473Z,1.20
2022-10-02T13:52:18.748Z,1.00
2022-10-02T13:58:00.726Z,1.13
2022-10-02T14:03:34.476Z,1.23
2022-10-02T14:09:19.634Z,1.10
2022-10-02T14:15:04.178Z,1.30
2022-10-02T14:20:55.400Z,1.00
2022-10-02T14:27:01.499Z,0.95
2022-10-02T14:32:47.970Z,0.90
2022-10-02T14:38:40.906Z,1.17
2022-10-02T14:44:50.520Z,1.02
2022-10-02T14:50:27.730Z,1.17
2022-10-02T14:56:13.608Z,1.10
2022-10-02T15:02:07.583Z,0.95
2022-10-02T15:07:40.307Z,1.20
2022-10-02T15:13:28.573Z,1.00
2022-10-02T15:19:23.194Z,0.90
2022-10-02T15:24:58.150Z,1.00
2022-10-02T15:30:30.924Z,1.10
2022-10-02T15:36:30.116Z,1.20
2022-10-02T15:42:12.764Z,0.82
2022-10-02T15:48:02.881Z,0.90
2022-10-02T15:53:51.968Z,1.17
2022-10-02T15:59:46.013Z,1.10
2022-10-02T16:05:41.730Z,1.23
2022-10-02T16:11:46.785Z,1.05
2022-10-02T16:17:43.794Z,1.20
2022-10-02T16:23:30.211Z,1.35
2022-10-02T16:29:38.651Z,1.20
2022-10-02T16:35:54.210Z,1.00
2022-10-02T16:46:59.360Z,1.10
2022-10-02T16:52:46.217Z,1.20
2022-10-02T16:58:27.925Z,1.20
2022-10-02T17:04:17.908Z,1.20
2022-10-02T17:09:52.429Z,1.27
2022-10-02T17:15:39.905Z,1.20
2022-10-02T17:21:14.448Z,1.30
2022-10-02T17:27:10.370Z,1.42
2022-10-02T17:33:15.504Z,1.10
2022-10-02T17:44:45.246Z,1.40
2022-10-02T17:50:28.625Z,1.20
2022-10-02T17:56:30.255Z,1.50
2022-10-02T18:02:29.838Z,1.48
2022-10-02T18:08:06.990Z,1.45
2022-10-02T18:13:47.093Z,1.27
2022-10-02T18:19:25.252Z,1.30
2022-10-02T18:25:14.530Z,1.40
2022-10-02T18:31:03.338Z,0.98
2022-10-02T18:37:04.523Z,1.40
2022-10-02T18:42:53.697Z,1.30
2022-10-02T18:48:43.086Z,1.25
2022-10-02T18:54:33.476Z,1.35
2022-10-02T19:00:18.854Z,1.45
2022-10-02T19:06:16.988Z,1.30
2022-10-02T19:11:58.131Z,1.45
2022-10-02T19:17:33.066Z,1.40
2022-10-02T19:23:06.657Z,1.40
2022-10-02T19:28:46.080Z,1.70
2022-10-02T19:34:24.950Z,1.20
2022-10-02T19:40:00.559Z,1.50
2022-10-02T19:45:34.701Z,1.42
2022-10-02T19:51:08.265Z,1.50
2022-10-02T19:56:42.648Z,1.50
2022-10-02T20:02:30.456Z,1.30
2022-10-02T20:08:07.330Z,1.38
2022-10-02T20:13:44.074Z,1.25
2022-10-02T20:19:21.983Z,1.50
2022-10-02T20:25:12.111Z,1.30
2022-10-02T20:30:50.843Z,1.70
2022-10-02T20:37:14.488Z,1.85
2022-10-02T20:42:51.268Z,1.48
2022-10-02T20:49:07.009Z,1.83
2022-10-02T20:54:43.070Z,1.52
2022-10-02T21:00:25.348Z,1.63
2022-10-02T21:05:59.238Z,1.80
2022-10-02T21:12:10.844Z,1.77
2022-10-02T21:18:07.336Z,1.45
2022-10-02T21:24:25.281Z,1.55
2022-10-02T21:30:18.846Z,1.75
2022-10-02T21:35:57.499Z,1.87
2022-10-02T21:42:07.648Z,1.88
2022-10-02T21:48:12.833Z,1.58
2022-10-02T21:59:54.407Z,2.00
2022-10-02T22:06:05.556Z,1.60
2022-10-02T22:11:40.330Z,1.70
2022-10-02T22:17:43.304Z,1.58
2022-10-02T22:23:29.627Z,1.40
2022-10-02T22:29:27.167Z,1.60
2022-10-02T22:35:23.768Z,1.48
2022-10-02T22:41:02.509Z,1.42
2022-10-02T22:46:41.512Z,1.80
2022-10-02T22:52:29.888Z,1.92
2022-10-02T22:58:14.988Z,1.85
2022-10-02T23:04:16.893Z,1.45
2022-10-02T23:09:47.744Z,1.70
2022-10-02T23:15:30.036Z,1.60
2022-10-02T23:21:45.646Z,1.70
2022-10-02T23:27:41.143Z,1.85
2022-10-02T23:33:21.227Z,1.85
2022-10-02T23:39:01.734Z,1.50
2022-10-02T23:44:49.909Z,1.65
2022-10-02T23:50:59.448Z,1.52
2022-10-02T23:56:36.177Z,1.60
